This is the latest recevied weather packets stored in our database for station/object Dunnningn. If no packets are shown the sender has not sent any weather packets the latest 10 day(s).
| Time | Temp. | Humidity | Pressure | Rain* | Wind** | Luminosity | Snow |
|---|---|---|---|---|---|---|---|
| 1777914130 | 16.67° C | 61% | 1012.4 hPa | 0 mm | - | - | - |
| 1777912332 | 17.78° C | 57% | 1012.6 hPa | 0 mm | - | - | - |
| 1777910530 | 17.78° C | 56% | 1012.4 hPa | 0 mm | - | - | - |
| 1777908732 | 18.89° C | 48% | 1012.2 hPa | 0 mm | - | - | - |
| 1777906930 | 18.33° C | 49% | 1012.3 hPa | 0 mm | - | - | - |
| 1777905129 | 18.89° C | 48% | 1012.4 hPa | 0 mm | - | - | - |
| 1777903330 | 19.44° C | 47% | 1012.6 hPa | 0 mm | - | - | - |
| 1777901532 | 19.44° C | 44% | 1012.5 hPa | 0 mm | - | - | - |
| 1777899735 | 19.44° C | 45% | 1012.6 hPa | 0 mm | - | - | - |
| 1777897935 | 20° C | 44% | 1012.7 hPa | 0 mm | - | - | - |
| 1777896130 | 20° C | 41% | 1012.9 hPa | 0 mm | - | - | - |
| 1777894331 | 19.44° C | 44% | 1013.1 hPa | 0 mm | - | - | - |
| 1777892530 | 20° C | 41% | 1013.4 hPa | 0 mm | - | - | - |
| 1777890735 | 18.33° C | 44% | 1013.7 hPa | 0 mm | - | - | - |
| 1777888932 | 18.33° C | 46% | 1013.7 hPa | 0 mm | - | - | - |
| 1777887130 | 17.78° C | 46% | 1013.9 hPa | 0 mm | - | - | - |
| 1777885331 | 17.78° C | 49% | 1014.1 hPa | 0 mm | - | - | - |
| 1777883533 | 17.78° C | 46% | 1014.1 hPa | 0 mm | - | - | - |
| 1777881731 | 17.22° C | 56% | 1014.2 hPa | 0 mm | - | - | - |
| 1777879930 | 14.44° C | 68% | 1014.2 hPa | 0 mm | - | - | - |
| 1777878132 | 12.78° C | 70% | 1014.2 hPa | 0 mm | - | - | - |
| 1777876331 | 11.67° C | 74% | 1014 hPa | 0 mm | - | - | - |
| 1777874532 | 10.56° C | 77% | 1014.1 hPa | 0 mm | - | - | - |
| 1777872731 | 8.89° C | 81% | 1014.1 hPa | 0 mm | - | - | - |
| 1777870930 | 8.33° C | 81% | 1014.1 hPa | 0 mm | - | - | - |
* Rain since midnight (hover to see other rain measurements)
** Current wind speed in m/s (hover to see current wind gust speed)